Time;durP1;ratioP1;P1;durP2;ratioP2;P2;SDS_P1;SDS_P2;PMS_P1;PMS_P2;Temp;Humidity;BMP_temperature;BMP_pressure;BME280_temperature;BME280_humidity;BME280_pressure;Samples;Min_cycle;Max_cycle;Signal;HPM_P1;HPM_P2
2022/04/30 00:00:01;;;;;;;17.15;10.77;;;;;;;;;;4923403;29;20027;-78
2022/04/30 00:02:26;;;;;;;15.05;10.27;;;;;;;;;;4922644;29;20499;-79
2022/04/30 00:04:52;;;;;;;22.50;10.97;;;;;;;;;;4939434;29;20400;-79
2022/04/30 00:07:19;;;;;;;22.33;11.30;;;;;;;;;;4938954;29;20255;-77
2022/04/30 00:09:46;;;;;;;18.13;11.65;;;;;;;;;;4937787;29;20052;-78
2022/04/30 00:12:12;;;;;;;18.05;11.90;;;;;;;;;;4937668;29;20023;-78
2022/04/30 00:14:38;;;;;;;16.30;11.15;;;;;;;;;;4937645;29;20030;-77
2022/04/30 00:17:03;;;;;;;18.98;10.93;;;;;;;;;;4937060;29;20092;-78
2022/04/30 00:19:29;;;;;;;15.77;10.70;;;;;;;;;;4937681;29;20058;-77
2022/04/30 00:21:55;;;;;;;22.55;11.15;;;;;;;;;;4937716;29;20032;-78
2022/04/30 00:24:20;;;;;;;18.55;11.18;;;;;;;;;;4939583;29;20083;-79
2022/04/30 00:26:45;;;;;;;20.98;11.20;;;;;;;;;;4922422;29;20074;-79
2022/04/30 00:29:11;;;;;;;17.70;11.15;;;;;;;;;;4922629;29;20028;-79
2022/04/30 00:31:36;;;;;;;17.83;10.52;;;;;;;;;;4938131;29;20055;-78
2022/04/30 00:34:02;;;;;;;19.95;10.57;;;;;;;;;;4937680;29;20419;-79
2022/04/30 00:36:28;;;;;;;18.75;11.23;;;;;;;;;;4938306;29;20079;-77
2022/04/30 00:38:53;;;;;;;20.95;12.02;;;;;;;;;;4937665;29;20027;-78
2022/04/30 00:41:19;;;;;;;16.50;10.98;;;;;;;;;;4937842;29;20024;-79
2022/04/30 00:43:44;;;;;;;16.58;10.80;;;;;;;;;;4920944;29;20491;-78
2022/04/30 00:46:16;;;;;;;20.30;11.45;;;;;;;;;;4939352;29;20464;-78
2022/04/30 00:48:42;;;;;;;20.75;12.35;;;;;;;;;;4939456;29;20016;-79
2022/04/30 00:51:09;;;;;;;20.13;11.70;;;;;;;;;;4938729;29;20140;-79
2022/04/30 00:53:35;;;;;;;19.55;12.18;;;;;;;;;;4923256;29;20023;-79
2022/04/30 00:56:05;;;;;;;18.75;12.25;;;;;;;;;;4940432;29;20016;-80
2022/04/30 00:58:32;;;;;;;19.35;11.35;;;;;;;;;;4939731;29;20023;-79
2022/04/30 01:00:58;;;;;;;20.52;12.02;;;;;;;;;;4938484;29;20028;-78
2022/04/30 01:03:24;;;;;;;25.10;12.73;;;;;;;;;;4941164;29;20023;-78
2022/04/30 01:05:51;;;;;;;17.92;12.02;;;;;;;;;;4925740;29;20023;-78
2022/04/30 01:08:17;;;;;;;21.40;11.75;;;;;;;;;;4922977;29;20038;-80
2022/04/30 01:10:42;;;;;;;23.58;12.52;;;;;;;;;;4937758;29;20063;-79
2022/04/30 01:13:08;;;;;;;19.67;11.95;;;;;;;;;;4937625;29;20483;-78
2022/04/30 01:15:34;;;;;;;21.23;11.82;;;;;;;;;;4937909;29;20027;-79
2022/04/30 01:17:59;;;;;;;19.60;11.98;;;;;;;;;;4919979;29;20027;-79
2022/04/30 01:20:26;;;;;;;17.88;11.38;;;;;;;;;;4937245;29;20432;-78
2022/04/30 01:22:59;;;;;;;23.55;11.90;;;;;;;;;;4936620;29;20120;-78
2022/04/30 01:25:25;;;;;;;21.00;11.27;;;;;;;;;;4921424;29;20051;-77
2022/04/30 01:27:52;;;;;;;24.50;11.98;;;;;;;;;;4937660;29;20032;-78
2022/04/30 01:30:19;;;;;;;20.27;11.65;;;;;;;;;;4936627;29;20028;-77
2022/04/30 01:38:12;;;;;;;19.85;12.23;;;;;;;;;;4936458;29;20051;-77
2022/04/30 01:40:37;;;;;;;20.75;11.70;;;;;;;;;;4937522;29;20028;-78
2022/04/30 01:43:05;;;;;;;16.20;9.93;;;;;;;;;;4935578;29;20499;-77
2022/04/30 01:45:31;;;;;;;20.48;10.30;;;;;;;;;;4935931;29;20051;-78
2022/04/30 01:47:58;;;;;;;17.80;9.45;;;;;;;;;;4936256;29;20472;-78
2022/04/30 01:50:23;;;;;;;17.73;8.23;;;;;;;;;;4918950;29;20031;-78
2022/04/30 01:52:49;;;;;;;14.18;8.13;;;;;;;;;;4935727;29;20016;-77
2022/04/30 01:55:15;;;;;;;16.48;7.55;;;;;;;;;;4919423;29;20031;-78
2022/04/30 01:57:41;;;;;;;15.95;7.10;;;;;;;;;;4937558;29;20471;-78
2022/04/30 02:00:06;;;;;;;12.98;5.93;;;;;;;;;;4937773;29;20028;-79
2022/04/30 02:02:35;;;;;;;10.55;7.00;;;;;;;;;;4937721;29;20456;-78
2022/04/30 02:05:05;;;;;;;11.38;6.63;;;;;;;;;;4937262;29;20055;-76
2022/04/30 02:07:32;;;;;;;12.70;5.82;;;;;;;;;;4937551;29;20020;-77
2022/04/30 02:09:58;;;;;;;13.68;6.25;;;;;;;;;;4936419;29;20071;-79
2022/04/30 02:12:24;;;;;;;11.00;6.10;;;;;;;;;;4935670;29;20063;-79
2022/04/30 02:14:50;;;;;;;11.73;5.88;;;;;;;;;;4936286;29;20012;-79
2022/04/30 02:17:17;;;;;;;11.82;6.15;;;;;;;;;;4936521;29;20027;-77
2022/04/30 02:22:30;;;;;;;16.25;6.63;;;;;;;;;;4936313;29;20510;-76
2022/04/30 02:24:56;;;;;;;14.65;5.13;;;;;;;;;;4936507;29;20030;-77
2022/04/30 02:27:22;;;;;;;7.82;5.40;;;;;;;;;;4935877;29;20027;-78
2022/04/30 02:29:47;;;;;;;9.98;5.40;;;;;;;;;;4918993;29;20031;-77
2022/04/30 02:32:13;;;;;;;9.73;5.13;;;;;;;;;;4936536;29;20439;-80
2022/04/30 02:34:38;;;;;;;10.85;5.10;;;;;;;;;;4935241;29;20046;-78
2022/04/30 02:37:07;;;;;;;11.73;5.75;;;;;;;;;;4936242;29;20034;-77
2022/04/30 02:39:32;;;;;;;;;;;;;;;;;;4935595;29;20020;-79
2022/04/30 02:41:58;;;;;;;16.52;5.40;;;;;;;;;;4918704;29;20001;-78
2022/04/30 02:44:26;;;;;;;8.50;4.72;;;;;;;;;;4934910;29;20078;-78
2022/04/30 02:46:53;;;;;;;12.60;4.80;;;;;;;;;;4919204;29;20620;-79
2022/04/30 02:49:19;;;;;;;9.73;5.30;;;;;;;;;;4940543;29;20031;-79
2022/04/30 02:51:44;;;;;;;10.20;4.85;;;;;;;;;;4937666;29;20015;-78
2022/04/30 02:54:09;;;;;;;10.80;5.15;;;;;;;;;;4918125;29;20020;-80
2022/04/30 02:56:37;;;;;;;11.57;4.43;;;;;;;;;;4935339;29;20530;-78
2022/04/30 03:01:47;;;;;;;9.70;4.78;;;;;;;;;;4935690;29;20058;-77
2022/04/30 03:04:12;;;;;;;9.30;4.10;;;;;;;;;;4935125;29;20063;-77
2022/04/30 03:06:37;;;;;;;10.05;4.35;;;;;;;;;;4939326;29;20023;-78
2022/04/30 03:09:03;;;;;;;8.77;4.75;;;;;;;;;;4940119;29;20023;-78
2022/04/30 03:11:28;;;;;;;10.02;4.78;;;;;;;;;;4920325;29;20463;-76
2022/04/30 03:13:53;;;;;;;11.43;4.53;;;;;;;;;;4936193;29;20091;-77
2022/04/30 03:21:57;;;;;;;12.25;4.63;;;;;;;;;;4936799;29;20399;-78
2022/04/30 03:24:22;;;;;;;14.68;4.30;;;;;;;;;;4918556;29;20036;-79
2022/04/30 03:26:49;;;;;;;13.88;5.57;;;;;;;;;;4919214;29;20020;-77
2022/04/30 03:29:15;;;;;;;9.02;4.35;;;;;;;;;;4919723;29;20081;-79
2022/04/30 03:31:40;;;;;;;13.73;4.95;;;;;;;;;;4940330;23;20109;-79
2022/04/30 03:34:15;;;;;;;7.78;4.18;;;;;;;;;;4927666;29;20057;-79
2022/04/30 03:36:40;;;;;;;10.43;4.75;;;;;;;;;;4910564;29;20020;-80
2022/04/30 03:39:06;;;;;;;11.75;4.50;;;;;;;;;;4927792;29;20391;-79
2022/04/30 03:41:32;;;;;;;8.25;4.57;;;;;;;;;;4909795;29;20115;-80
2022/04/30 03:43:57;;;;;;;10.00;4.68;;;;;;;;;;4906316;29;20126;-80
2022/04/30 03:46:23;;;;;;;11.23;4.35;;;;;;;;;;4907024;29;20111;-80
2022/04/30 03:49:00;;;;;;;8.32;4.30;;;;;;;;;;4907283;29;20048;-81
2022/04/30 03:51:26;;;;;;;10.48;4.65;;;;;;;;;;4906344;29;20029;-81
2022/04/30 03:53:51;;;;;;;8.00;3.80;;;;;;;;;;4910044;29;20024;-80
2022/04/30 03:56:17;;;;;;;7.30;4.20;;;;;;;;;;4926938;29;20076;-80
2022/04/30 03:58:43;;;;;;;11.10;4.30;;;;;;;;;;4910127;29;20071;-80
2022/04/30 04:01:08;;;;;;;9.25;3.95;;;;;;;;;;4927172;29;20027;-80
2022/04/30 04:03:36;;;;;;;12.57;4.95;;;;;;;;;;4909167;29;20026;-80
2022/04/30 04:06:01;;;;;;;13.80;4.43;;;;;;;;;;4909158;29;20032;-79
2022/04/30 04:08:27;;;;;;;7.70;3.78;;;;;;;;;;4909077;29;20031;-80
2022/04/30 04:10:53;;;;;;;16.08;4.78;;;;;;;;;;4907620;29;20088;-80
2022/04/30 04:18:46;;;;;;;9.48;4.13;;;;;;;;;;4923424;29;20027;-79
2022/04/30 04:21:11;;;;;;;8.85;4.05;;;;;;;;;;4907074;29;20117;-80
2022/04/30 04:26:21;;;;;;;9.27;4.00;;;;;;;;;;4923013;29;20043;-80
2022/04/30 04:28:47;;;;;;;9.65;4.10;;;;;;;;;;4905344;29;20515;-80
2022/04/30 04:31:13;;;;;;;12.65;4.85;;;;;;;;;;4905815;29;20056;-81
2022/04/30 04:33:39;;;;;;;7.85;4.10;;;;;;;;;;4906467;29;20031;-81
2022/04/30 04:36:04;;;;;;;11.50;5.70;;;;;;;;;;4906871;29;20024;-79
2022/04/30 04:38:33;;;;;;;10.30;4.47;;;;;;;;;;4906885;29;20111;-80
2022/04/30 04:40:59;;;;;;;6.93;3.95;;;;;;;;;;4906190;29;20028;-81
2022/04/30 04:43:24;;;;;;;9.02;4.10;;;;;;;;;;4922960;29;20393;-82
2022/04/30 04:45:50;;;;;;;14.43;4.50;;;;;;;;;;4907332;29;20075;-82
2022/04/30 04:48:16;;;;;;;7.88;4.43;;;;;;;;;;4906639;29;20034;-81
2022/04/30 04:50:42;;;;;;;10.02;5.03;;;;;;;;;;4906308;29;20020;-81
2022/04/30 04:53:07;;;;;;;11.40;4.80;;;;;;;;;;4906580;29;20020;-81
2022/04/30 04:55:32;;;;;;;11.70;4.65;;;;;;;;;;4922868;29;20020;-82
2022/04/30 04:57:58;;;;;;;10.25;4.22;;;;;;;;;;4906377;29;20083;-81
2022/04/30 05:00:23;;;;;;;10.98;4.53;;;;;;;;;;4906063;29;20042;-81
2022/04/30 05:02:49;;;;;;;12.57;4.65;;;;;;;;;;4905331;29;20075;-81
2022/04/30 05:05:14;;;;;;;16.90;7.47;;;;;;;;;;4923023;29;20056;-82
2022/04/30 05:07:40;;;;;;;9.82;4.68;;;;;;;;;;4923475;29;20028;-81
2022/04/30 05:10:05;;;;;;;8.10;4.97;;;;;;;;;;4905538;29;20020;-81
2022/04/30 05:12:31;;;;;;;9.63;5.38;;;;;;;;;;4905837;29;20070;-81
2022/04/30 05:14:57;;;;;;;9.80;4.88;;;;;;;;;;4907374;29;20023;-82
2022/04/30 05:17:22;;;;;;;9.32;5.25;;;;;;;;;;4908510;29;20020;-81
2022/04/30 05:19:48;;;;;;;9.40;5.05;;;;;;;;;;4909846;29;20024;-81
2022/04/30 05:22:14;;;;;;;8.68;4.78;;;;;;;;;;4910674;29;20481;-81
2022/04/30 05:24:43;;;;;;;13.48;5.57;;;;;;;;;;4908650;29;20028;-81
2022/04/30 05:27:08;;;;;;;14.77;5.30;;;;;;;;;;4909657;29;20027;-80
2022/04/30 05:29:34;;;;;;;11.20;5.30;;;;;;;;;;4907717;29;20395;-80
2022/04/30 05:31:59;;;;;;;9.00;5.40;;;;;;;;;;4905002;29;20016;-81
2022/04/30 05:34:24;;;;;;;11.10;5.78;;;;;;;;;;4905014;29;20024;-81
2022/04/30 05:36:53;;;;;;;10.77;5.30;;;;;;;;;;4905353;29;20024;-80
2022/04/30 05:39:18;;;;;;;11.15;5.15;;;;;;;;;;4921453;29;20499;-81
2022/04/30 05:41:49;;;;;;;10.40;4.93;;;;;;;;;;4906342;29;20028;-81
2022/04/30 05:44:15;;;;;;;10.02;5.10;;;;;;;;;;4906865;29;20475;-82
2022/04/30 05:46:44;;;;;;;9.70;5.22;;;;;;;;;;4909693;29;20071;-81
2022/04/30 05:49:09;;;;;;;;;;;;;;;;;;4908504;29;20032;-81
2022/04/30 05:51:34;;;;;;;10.75;4.95;;;;;;;;;;4906310;29;20047;-81
2022/04/30 05:54:00;;;;;;;9.45;4.75;;;;;;;;;;4904544;29;20035;-81
2022/04/30 05:56:27;;;;;;;15.02;5.35;;;;;;;;;;4902585;29;20056;-79
2022/04/30 05:58:52;;;;;;;13.52;4.32;;;;;;;;;;4902853;29;20024;-80
2022/04/30 06:01:18;;;;;;;12.18;5.10;;;;;;;;;;4919869;29;20028;-80
2022/04/30 06:03:44;;;;;;;11.77;5.63;;;;;;;;;;4922862;29;20016;-82
2022/04/30 06:06:10;;;;;;;12.18;4.78;;;;;;;;;;4907730;29;20495;-80
2022/04/30 06:08:43;;;;;;;10.90;4.80;;;;;;;;;;4925809;29;20028;-82
2022/04/30 06:11:08;;;;;;;10.88;4.85;;;;;;;;;;4925744;29;20020;-81
2022/04/30 06:13:34;;;;;;;12.13;5.70;;;;;;;;;;4908088;29;20028;-81
2022/04/30 06:15:59;;;;;;;11.88;4.78;;;;;;;;;;4919082;29;20023;-81
2022/04/30 06:18:36;;;;;;;12.05;4.63;;;;;;;;;;4919793;29;20016;-80
2022/04/30 06:21:02;;;;;;;9.93;4.57;;;;;;;;;;4902763;29;20047;-80
2022/04/30 06:23:28;;;;;;;11.93;4.88;;;;;;;;;;4906101;29;20032;-81
2022/04/30 06:25:56;;;;;;;11.27;4.93;;;;;;;;;;4906043;29;20080;-80
2022/04/30 06:28:21;;;;;;;11.23;4.93;;;;;;;;;;4905878;29;20072;-80
2022/04/30 06:30:47;;;;;;;11.30;4.88;;;;;;;;;;4922288;29;20032;-80
2022/04/30 06:33:12;;;;;;;10.85;5.13;;;;;;;;;;4902917;29;20136;-81
2022/04/30 06:35:41;;;;;;;10.73;4.57;;;;;;;;;;4920874;29;20328;-81
2022/04/30 06:38:11;;;;;;;10.93;4.90;;;;;;;;;;4903766;29;20027;-80
2022/04/30 06:40:37;;;;;;;10.93;4.75;;;;;;;;;;4903638;29;20024;-82
2022/04/30 06:43:03;;;;;;;8.25;4.55;;;;;;;;;;4921527;29;20027;-81
2022/04/30 06:45:32;;;;;;;11.13;4.80;;;;;;;;;;4905197;29;20063;-81
2022/04/30 06:50:48;;;;;;;11.88;4.38;;;;;;;;;;4919133;29;20029;-81
2022/04/30 06:58:50;;;;;;;10.30;4.97;;;;;;;;;;4932218;29;20423;-83
2022/04/30 07:04:04;;;;;;;12.07;4.20;;;;;;;;;;4928675;29;20020;-81
2022/04/30 07:06:33;;;;;;;12.65;4.32;;;;;;;;;;4932524;29;20024;-80
2022/04/30 07:08:59;;;;;;;8.45;4.78;;;;;;;;;;4916019;29;20056;-82
2022/04/30 07:11:25;;;;;;;13.35;5.72;;;;;;;;;;4914286;29;20020;-81
2022/04/30 07:13:50;;;;;;;9.88;4.68;;;;;;;;;;4915315;29;20067;-81
2022/04/30 07:16:19;;;;;;;7.75;4.47;;;;;;;;;;4931896;29;20488;-84
2022/04/30 07:18:49;;;;;;;8.40;4.95;;;;;;;;;;4916450;29;20025;-81
2022/04/30 07:21:14;;;;;;;9.45;5.20;;;;;;;;;;4935086;29;20052;-83
2022/04/30 07:23:46;;;;;;;10.68;5.05;;;;;;;;;;4933909;29;20020;-83
2022/04/30 07:26:11;;;;;;;8.00;4.68;;;;;;;;;;4936330;29;20096;-82
2022/04/30 07:28:49;;;;;;;9.27;4.72;;;;;;;;;;4921131;29;20035;-83
2022/04/30 07:31:14;;;;;;;11.20;5.05;;;;;;;;;;4920182;29;20028;-83
2022/04/30 07:33:41;;;;;;;11.15;5.47;;;;;;;;;;4919852;29;20031;-82
2022/04/30 07:36:07;;;;;;;12.57;5.03;;;;;;;;;;4935700;29;20020;-82
2022/04/30 07:38:54;;;;;;;11.95;4.95;;;;;;;;;;4916781;29;20028;-82
2022/04/30 07:41:22;;;;;;;10.13;5.03;;;;;;;;;;4919173;29;20028;-83
2022/04/30 07:43:48;;;;;;;9.40;5.70;;;;;;;;;;4918905;29;20031;-83
2022/04/30 07:46:16;;;;;;;11.38;4.90;;;;;;;;;;4921115;29;20095;-82
2022/04/30 07:48:42;;;;;;;12.02;4.53;;;;;;;;;;4916611;29;20036;-81
2022/04/30 07:51:14;;;;;;;11.40;4.97;;;;;;;;;;4911710;29;20087;-82
2022/04/30 07:53:42;;;;;;;8.68;4.60;;;;;;;;;;4907137;29;20020;-81
2022/04/30 07:56:14;;;;;;;14.57;4.63;;;;;;;;;;4924939;29;20031;-81
2022/04/30 07:58:42;;;;;;;8.07;4.25;;;;;;;;;;4908959;29;20060;-80
2022/04/30 08:01:07;;;;;;;15.07;5.25;;;;;;;;;;4907171;29;20067;-81
2022/04/30 08:03:33;;;;;;;9.23;4.60;;;;;;;;;;4908222;29;20024;-81
2022/04/30 08:06:02;;;;;;;10.18;5.10;;;;;;;;;;4926824;29;20016;-81
2022/04/30 08:08:33;;;;;;;8.55;4.65;;;;;;;;;;4919465;29;20071;-82
2022/04/30 08:11:02;;;;;;;9.13;5.30;;;;;;;;;;4920741;29;20047;-81
2022/04/30 08:13:27;;;;;;;7.88;4.28;;;;;;;;;;4917167;29;20027;-81
2022/04/30 08:15:53;;;;;;;8.60;4.40;;;;;;;;;;4913703;29;20024;-81
2022/04/30 08:18:19;;;;;;;12.25;4.82;;;;;;;;;;4910448;29;20020;-82
2022/04/30 08:20:46;;;;;;;13.43;4.78;;;;;;;;;;4908319;29;20024;-81
2022/04/30 08:23:12;;;;;;;12.02;5.22;;;;;;;;;;4910289;29;20024;-80
2022/04/30 08:25:38;;;;;;;15.55;5.75;;;;;;;;;;4912110;29;20028;-81
2022/04/30 08:28:04;;;;;;;10.15;4.72;;;;;;;;;;4912567;29;20031;-80
2022/04/30 08:30:32;;;;;;;9.57;4.75;;;;;;;;;;4912727;29;20408;-79
2022/04/30 08:32:57;;;;;;;13.45;5.25;;;;;;;;;;4912271;29;20054;-78
2022/04/30 08:35:23;;;;;;;8.60;4.38;;;;;;;;;;4912796;29;20028;-82
2022/04/30 08:37:48;;;;;;;11.35;5.07;;;;;;;;;;4916251;29;20083;-81
2022/04/30 08:40:14;;;;;;;11.60;4.85;;;;;;;;;;4916682;29;20031;-80
2022/04/30 08:42:43;;;;;;;9.20;4.25;;;;;;;;;;4929672;29;20035;-81
2022/04/30 08:45:08;;;;;;;;;;;;;;;;;;4933727;29;20051;-81
2022/04/30 08:47:47;;;;;;;10.52;5.05;;;;;;;;;;4931754;29;19914;-82
2022/04/30 08:50:14;;;;;;;8.10;4.20;;;;;;;;;;4916815;29;20278;-81
2022/04/30 08:52:41;;;;;;;7.15;4.68;;;;;;;;;;4917495;29;20020;-83
2022/04/30 08:55:10;;;;;;;11.10;4.93;;;;;;;;;;4916992;29;20072;-82
2022/04/30 08:57:39;;;;;;;11.77;4.63;;;;;;;;;;4934871;29;20008;-83
2022/04/30 09:00:07;;;;;;;13.60;4.43;;;;;;;;;;4918890;29;20096;-82
2022/04/30 09:02:33;;;;;;;12.60;4.90;;;;;;;;;;4936493;29;20020;-81
2022/04/30 09:04:58;;;;;;;10.35;4.93;;;;;;;;;;4918020;29;20043;-83
2022/04/30 09:07:25;;;;;;;8.45;4.22;;;;;;;;;;4935725;29;20031;-82
2022/04/30 09:09:56;;;;;;;8.90;4.60;;;;;;;;;;4934930;29;20064;-82
2022/04/30 09:12:22;;;;;;;10.85;4.57;;;;;;;;;;4914067;29;20464;-81
2022/04/30 09:14:47;;;;;;;9.82;4.75;;;;;;;;;;4910586;29;20083;-81
2022/04/30 09:17:14;;;;;;;12.23;5.30;;;;;;;;;;4928939;29;20020;-79
2022/04/30 09:19:46;;;;;;;8.77;4.50;;;;;;;;;;4911160;29;20028;-79
2022/04/30 09:22:11;;;;;;;10.73;6.18;;;;;;;;;;4910051;29;20113;-80
2022/04/30 09:24:49;;;;;;;13.18;5.28;;;;;;;;;;4925165;29;20107;-78
2022/04/30 09:27:15;;;;;;;10.37;5.10;;;;;;;;;;4909445;29;20044;-79
2022/04/30 09:29:40;;;;;;;10.70;4.63;;;;;;;;;;4908136;29;20024;-79
2022/04/30 09:32:06;;;;;;;9.02;4.68;;;;;;;;;;4936875;23;20127;-84
2022/04/30 09:40:16;;;;;;;13.18;5.90;;;;;;;;;;4935831;29;20506;-83
2022/04/30 09:42:41;;;;;;;11.57;4.80;;;;;;;;;;4934116;29;20490;-83
2022/04/30 09:45:21;;;;;;;12.02;5.03;;;;;;;;;;4935236;29;20023;-84
2022/04/30 09:47:46;;;;;;;11.77;4.95;;;;;;;;;;4935840;29;20083;-83
2022/04/30 09:55:53;;;;;;;8.80;4.70;;;;;;;;;;4936617;29;20042;-84
2022/04/30 09:58:25;;;;;;;9.32;5.07;;;;;;;;;;4934052;29;20111;-83
2022/04/30 10:01:00;;;;;;;7.70;4.20;;;;;;;;;;4933788;29;20023;-84
2022/04/30 10:03:28;;;;;;;12.90;5.28;;;;;;;;;;4934974;29;20083;-83
2022/04/30 10:05:57;;;;;;;12.45;5.05;;;;;;;;;;4936032;29;20094;-83
2022/04/30 10:08:23;;;;;;;8.73;4.50;;;;;;;;;;4935448;29;20023;-82
2022/04/30 10:10:54;;;;;;;10.52;4.75;;;;;;;;;;4935753;29;20494;-82
2022/04/30 10:13:22;;;;;;;15.18;5.18;;;;;;;;;;4935453;29;20035;-82
2022/04/30 10:15:52;;;;;;;12.38;4.75;;;;;;;;;;4935099;29;20447;-82
2022/04/30 10:18:20;;;;;;;11.63;5.32;;;;;;;;;;4933880;29;20054;-81
2022/04/30 10:20:52;;;;;;;10.27;5.65;;;;;;;;;;4935173;29;20542;-82
2022/04/30 10:23:17;;;;;;;9.63;4.82;;;;;;;;;;4934868;29;20030;-82
2022/04/30 10:25:46;;;;;;;7.88;4.50;;;;;;;;;;4934739;29;20020;-82
2022/04/30 10:28:17;;;;;;;7.95;4.57;;;;;;;;;;4935149;29;20045;-81
2022/04/30 10:30:43;;;;;;;11.35;4.90;;;;;;;;;;4934744;29;20059;-82
2022/04/30 10:33:09;;;;;;;13.85;4.80;;;;;;;;;;4933052;29;20429;-81
2022/04/30 10:35:35;;;;;;;12.70;4.80;;;;;;;;;;4935434;29;20059;-82
2022/04/30 10:38:19;;;;;;;10.07;4.78;;;;;;;;;;4934765;29;20020;-82
2022/04/30 10:40:46;;;;;;;12.07;4.78;;;;;;;;;;4934590;29;20024;-82
2022/04/30 10:43:15;;;;;;;8.40;4.25;;;;;;;;;;4934234;29;20034;-82
2022/04/30 10:45:40;;;;;;;7.80;4.32;;;;;;;;;;4934878;29;20086;-81
2022/04/30 10:48:05;;;;;;;11.70;4.65;;;;;;;;;;4934860;29;20052;-82
2022/04/30 10:50:40;;;;;;;15.70;4.75;;;;;;;;;;4936453;29;20387;-81
2022/04/30 10:53:06;;;;;;;6.82;3.78;;;;;;;;;;4938741;29;20042;-83
2022/04/30 10:55:37;;;;;;;12.07;4.90;;;;;;;;;;4935229;29;20531;-83
2022/04/30 10:58:02;;;;;;;9.90;4.40;;;;;;;;;;4934911;29;20156;-82
2022/04/30 11:00:27;;;;;;;11.98;5.53;;;;;;;;;;4934647;29;20330;-82
2022/04/30 11:02:56;;;;;;;11.95;4.70;;;;;;;;;;4938126;29;20102;-81
2022/04/30 11:05:24;;;;;;;9.45;4.78;;;;;;;;;;4936976;29;20176;-83
2022/04/30 11:07:53;;;;;;;;;;;;;;;;;;4937328;29;20028;-82
2022/04/30 11:10:18;;;;;;;9.85;4.95;;;;;;;;;;4937402;29;19911;-83
2022/04/30 11:12:46;;;;;;;10.85;4.63;;;;;;;;;;4938303;29;20018;-82
2022/04/30 11:15:13;;;;;;;10.05;4.68;;;;;;;;;;4938347;29;20024;-81
2022/04/30 11:17:45;;;;;;;9.23;4.40;;;;;;;;;;4938411;29;20038;-81
2022/04/30 11:20:10;;;;;;;8.20;4.45;;;;;;;;;;4938377;29;20027;-82
2022/04/30 11:22:36;;;;;;;8.55;4.88;;;;;;;;;;4938250;29;20020;-81
2022/04/30 11:25:01;;;;;;;7.47;3.80;;;;;;;;;;4938057;29;20035;-82
2022/04/30 11:27:29;;;;;;;7.70;4.73;;;;;;;;;;4937049;29;20357;-85
2022/04/30 11:29:57;;;;;;;9.63;4.97;;;;;;;;;;4936896;29;20704;-83
2022/04/30 11:32:24;;;;;;;9.52;4.82;;;;;;;;;;4936889;29;20039;-82
2022/04/30 11:34:53;;;;;;;11.85;5.05;;;;;;;;;;4937339;29;20076;-82
2022/04/30 11:37:18;;;;;;;11.45;5.35;;;;;;;;;;4936479;29;20020;-82
2022/04/30 11:39:43;;;;;;;7.57;4.93;;;;;;;;;;4938635;29;20039;-82
2022/04/30 11:42:09;;;;;;;8.47;5.37;;;;;;;;;;4938183;29;20265;-83
2022/04/30 11:44:34;;;;;;;8.43;4.20;;;;;;;;;;4936350;29;20254;-82
2022/04/30 11:46:59;;;;;;;10.47;4.90;;;;;;;;;;4936698;29;20480;-82
2022/04/30 11:49:26;;;;;;;11.93;5.07;;;;;;;;;;4939929;29;20030;-81
2022/04/30 11:51:55;;;;;;;10.82;5.55;;;;;;;;;;4941908;29;20031;-82
2022/04/30 11:54:21;;;;;;;12.18;5.53;;;;;;;;;;4937631;29;20056;-82
2022/04/30 11:56:47;;;;;;;8.27;5.45;;;;;;;;;;4945933;29;20075;-81
2022/04/30 11:59:12;;;;;;;8.25;4.80;;;;;;;;;;4943524;29;20383;-82
2022/04/30 12:01:39;;;;;;;9.40;4.68;;;;;;;;;;4940728;29;20028;-81
2022/04/30 12:04:05;;;;;;;9.00;4.90;;;;;;;;;;4950192;29;20020;-81
2022/04/30 12:06:30;;;;;;;7.75;4.60;;;;;;;;;;4951205;29;20031;-82
2022/04/30 12:08:56;;;;;;;8.52;4.80;;;;;;;;;;4946237;29;20034;-81
2022/04/30 12:11:21;;;;;;;13.85;5.65;;;;;;;;;;4946826;29;20020;-79
2022/04/30 12:14:03;;;;;;;12.30;5.38;;;;;;;;;;4944940;29;20439;-80
2022/04/30 12:16:57;;;;;;;8.07;4.97;;;;;;;;;;4947228;29;20066;-80
2022/04/30 12:25:02;;;;;;;10.25;5.50;;;;;;;;;;4945312;29;20172;-83
2022/04/30 12:27:28;;;;;;;18.33;5.80;;;;;;;;;;4937319;29;20019;-81
2022/04/30 12:30:04;;;;;;;8.82;4.97;;;;;;;;;;4936534;29;20390;-82
2022/04/30 12:32:30;;;;;;;7.07;4.25;;;;;;;;;;4937140;29;20032;-80
2022/04/30 12:34:57;;;;;;;10.68;5.20;;;;;;;;;;4935423;29;20479;-81
2022/04/30 12:37:29;;;;;;;10.20;5.90;;;;;;;;;;4935586;29;20039;-81
2022/04/30 12:39:54;;;;;;;10.38;4.93;;;;;;;;;;4936812;29;20507;-81
2022/04/30 12:42:20;;;;;;;9.90;5.53;;;;;;;;;;4936596;29;20038;-80
2022/04/30 12:44:45;;;;;;;7.43;4.80;;;;;;;;;;4936706;29;20308;-81
2022/04/30 12:47:10;;;;;;;11.13;5.23;;;;;;;;;;4936745;29;20058;-81
2022/04/30 12:49:35;;;;;;;15.70;5.90;;;;;;;;;;4936719;29;20141;-81
2022/04/30 12:52:01;;;;;;;9.40;4.10;;;;;;;;;;4936479;29;20250;-80
2022/04/30 12:54:27;;;;;;;6.72;4.78;;;;;;;;;;4934659;29;20602;-81
2022/04/30 12:56:55;;;;;;;12.90;5.53;;;;;;;;;;4936381;29;20026;-81
2022/04/30 12:59:20;;;;;;;10.15;5.22;;;;;;;;;;4935930;29;20024;-80
2022/04/30 13:01:45;;;;;;;7.47;3.78;;;;;;;;;;4936217;29;20026;-82
2022/04/30 13:04:12;;;;;;;8.07;3.73;;;;;;;;;;4935614;29;20024;-82
2022/04/30 13:06:37;;;;;;;7.40;3.75;;;;;;;;;;4936084;29;20265;-80
2022/04/30 13:14:31;;;;;;;13.57;5.45;;;;;;;;;;4935947;29;20432;-80
2022/04/30 13:16:56;;;;;;;9.53;5.00;;;;;;;;;;4934711;29;20028;-81
2022/04/30 13:19:22;;;;;;;8.02;4.60;;;;;;;;;;4936143;29;20024;-80
2022/04/30 13:21:47;;;;;;;8.20;5.03;;;;;;;;;;4935863;29;20051;-81
2022/04/30 13:24:16;;;;;;;9.77;4.18;;;;;;;;;;4935255;29;20246;-81
2022/04/30 13:26:41;;;;;;;10.60;5.15;;;;;;;;;;4934595;29;20107;-81
2022/04/30 13:29:10;;;;;;;12.93;4.63;;;;;;;;;;4935795;29;20078;-80
2022/04/30 13:31:47;;;;;;;8.30;3.90;;;;;;;;;;4935446;29;20131;-81
2022/04/30 13:34:13;;;;;;;7.27;3.70;;;;;;;;;;4935211;29;20066;-82
2022/04/30 13:36:41;;;;;;;8.93;4.35;;;;;;;;;;4935550;29;20016;-81
2022/04/30 13:39:07;;;;;;;8.68;4.18;;;;;;;;;;4933939;29;20091;-81
2022/04/30 13:41:32;;;;;;;8.40;4.28;;;;;;;;;;4935039;29;20467;-81
2022/04/30 13:43:57;;;;;;;8.52;4.22;;;;;;;;;;4933574;29;20046;-80
2022/04/30 13:46:23;;;;;;;9.27;4.25;;;;;;;;;;4935963;29;20102;-80
2022/04/30 13:48:51;;;;;;;11.90;4.13;;;;;;;;;;4938985;29;20047;-81
2022/04/30 13:51:16;;;;;;;;;;;;;;;;;;4939251;29;20027;-80
2022/04/30 13:53:42;;;;;;;6.75;3.70;;;;;;;;;;4936223;29;19906;-81
2022/04/30 13:56:10;;;;;;;9.57;4.40;;;;;;;;;;4934083;29;20067;-80
2022/04/30 13:58:36;;;;;;;9.43;5.22;;;;;;;;;;4935494;29;20015;-81
2022/04/30 14:01:01;;;;;;;12.45;4.50;;;;;;;;;;4934443;29;20019;-80
2022/04/30 14:03:28;;;;;;;6.35;4.00;;;;;;;;;;4934920;29;20028;-80
2022/04/30 14:05:53;;;;;;;9.65;5.38;;;;;;;;;;4935269;29;20031;-80
2022/04/30 14:08:18;;;;;;;8.20;5.25;;;;;;;;;;4935368;29;20036;-80
2022/04/30 14:10:44;;;;;;;10.80;5.80;;;;;;;;;;4934928;29;20024;-81
2022/04/30 14:15:54;;;;;;;9.23;5.05;;;;;;;;;;4935442;29;20027;-80
2022/04/30 14:18:25;;;;;;;8.52;5.20;;;;;;;;;;4935084;29;20020;-80
2022/04/30 14:20:51;;;;;;;7.90;4.22;;;;;;;;;;4935029;29;20030;-79
2022/04/30 14:23:16;;;;;;;8.30;4.45;;;;;;;;;;4934398;29;20024;-81
2022/04/30 14:25:45;;;;;;;8.23;5.03;;;;;;;;;;4935043;29;20024;-80
2022/04/30 14:28:10;;;;;;;;;;;;;;;;;;4935709;29;20095;-80
2022/04/30 14:30:38;;;;;;;11.37;3.50;;;;;;;;;;4933427;29;20074;-81
2022/04/30 14:33:03;;;;;;;;;;;;;;;;;;4935044;29;20269;-80
2022/04/30 14:35:29;;;;;;;9.27;4.03;;;;;;;;;;4933387;29;19907;-81
2022/04/30 14:37:54;;;;;;;6.18;3.30;;;;;;;;;;4933387;29;20110;-80
2022/04/30 14:40:20;;;;;;;7.65;3.85;;;;;;;;;;4935251;29;20493;-80
2022/04/30 14:42:47;;;;;;;9.77;4.43;;;;;;;;;;4934409;29;20024;-79
2022/04/30 14:45:14;;;;;;;11.80;3.80;;;;;;;;;;4934488;29;20126;-81
2022/04/30 14:47:39;;;;;;;8.32;5.05;;;;;;;;;;4939486;29;20024;-81
2022/04/30 14:50:08;;;;;;;13.87;4.17;;;;;;;;;;4938354;29;20388;-81
2022/04/30 14:52:35;;;;;;;6.80;4.38;;;;;;;;;;4933283;29;20094;-79
2022/04/30 14:55:03;;;;;;;12.48;5.40;;;;;;;;;;4934535;29;20104;-79
2022/04/30 14:57:28;;;;;;;7.82;4.07;;;;;;;;;;4934300;29;20027;-79
2022/04/30 14:59:53;;;;;;;7.90;4.60;;;;;;;;;;4933110;29;20043;-79
2022/04/30 15:02:25;;;;;;;9.43;4.78;;;;;;;;;;4934190;29;20128;-81
2022/04/30 15:04:50;;;;;;;7.10;4.35;;;;;;;;;;4934133;29;20028;-79
2022/04/30 15:07:15;;;;;;;8.13;4.28;;;;;;;;;;4934126;29;20075;-79
2022/04/30 15:09:41;;;;;;;8.23;3.80;;;;;;;;;;4934188;29;20028;-80
2022/04/30 15:12:07;;;;;;;8.23;4.13;;;;;;;;;;4932523;29;20019;-81
2022/04/30 15:14:32;;;;;;;5.00;3.50;;;;;;;;;;4934081;29;20111;-79
2022/04/30 15:16:57;;;;;;;7.17;3.77;;;;;;;;;;4933076;29;20031;-80
2022/04/30 15:19:23;;;;;;;12.63;4.75;;;;;;;;;;4934392;29;20250;-79
2022/04/30 15:21:48;;;;;;;10.55;4.50;;;;;;;;;;4934169;29;20046;-80
2022/04/30 15:24:20;;;;;;;7.45;3.70;;;;;;;;;;4932776;29;20032;-80
2022/04/30 15:26:46;;;;;;;6.63;3.95;;;;;;;;;;4932710;29;20055;-79
2022/04/30 15:29:11;;;;;;;8.25;3.45;;;;;;;;;;4934394;29;20425;-80
2022/04/30 15:31:50;;;;;;;7.93;3.92;;;;;;;;;;4936785;23;20086;-77
2022/04/30 15:34:15;;;;;;;6.95;3.17;;;;;;;;;;4914760;29;20495;-78